sensor_id;sensor_type;location;lat;lon;timestamp;pressure;altitude;pressure_sealevel;temperature;humidity
30614;BME280;17381;51.690;5.270;2023-04-26T00:01:45;101942.66;;;4.83;69.55
30614;BME280;17381;51.690;5.270;2023-04-26T00:04:13;101932.94;;;4.74;69.65
30614;BME280;17381;51.690;5.270;2023-04-26T00:06:45;101933.75;;;4.72;70.14
30614;BME280;17381;51.690;5.270;2023-04-26T00:09:16;101932.97;;;4.76;70.31
30614;BME280;17381;51.690;5.270;2023-04-26T00:11:44;101923.19;;;4.61;70.25
30614;BME280;17381;51.690;5.270;2023-04-26T00:14:19;101948.56;;;4.73;70.35
30614;BME280;17381;51.690;5.270;2023-04-26T00:16:58;101943.28;;;4.70;70.00
30614;BME280;17381;51.690;5.270;2023-04-26T00:19:35;101950.16;;;4.66;70.39
30614;BME280;17381;51.690;5.270;2023-04-26T00:22:12;101935.25;;;4.54;70.80
30614;BME280;17381;51.690;5.270;2023-04-26T00:24:43;101901.94;;;4.35;70.90
30614;BME280;17381;51.690;5.270;2023-04-26T00:27:17;101924.69;;;4.47;70.71
30614;BME280;17381;51.690;5.270;2023-04-26T00:29:49;101938.72;;;4.56;70.68
30614;BME280;17381;51.690;5.270;2023-04-26T00:32:20;101944.75;;;4.52;71.02
30614;BME280;17381;51.690;5.270;2023-04-26T00:35:14;101934.34;;;4.52;70.85
30614;BME280;17381;51.690;5.270;2023-04-26T00:37:52;101926.31;;;4.40;70.87
30614;BME280;17381;51.690;5.270;2023-04-26T00:40:31;101893.94;;;4.24;70.62
30614;BME280;17381;51.690;5.270;2023-04-26T00:43:09;101939.41;;;4.46;71.34
30614;BME280;17381;51.690;5.270;2023-04-26T00:45:41;101938.53;;;4.44;71.12
30614;BME280;17381;51.690;5.270;2023-04-26T00:48:07;101891.91;;;4.08;70.88
30614;BME280;17381;51.690;5.270;2023-04-26T00:50:55;101936.53;;;4.31;70.89
30614;BME280;17381;51.690;5.270;2023-04-26T00:53:33;101940.00;;;4.30;71.19
30614;BME280;17381;51.690;5.270;2023-04-26T00:56:00;101940.84;;;4.27;71.50
30614;BME280;17381;51.690;5.270;2023-04-26T00:58:52;101941.66;;;4.25;70.97
30614;BME280;17381;51.690;5.270;2023-04-26T01:01:22;101936.41;;;4.23;71.30
30614;BME280;17381;51.690;5.270;2023-04-26T01:03:58;101938.09;;;4.20;70.98
30614;BME280;17381;51.690;5.270;2023-04-26T01:06:48;101940.72;;;4.21;71.60
30614;BME280;17381;51.690;5.270;2023-04-26T01:09:14;101940.72;;;4.21;71.37
30614;BME280;17381;51.690;5.270;2023-04-26T01:11:46;101938.03;;;4.17;71.71
30614;BME280;17381;51.690;5.270;2023-04-26T01:14:16;101944.16;;;4.19;71.71
30614;BME280;17381;51.690;5.270;2023-04-26T01:16:46;101944.94;;;4.14;71.41
30614;BME280;17381;51.690;5.270;2023-04-26T01:19:18;101941.41;;;4.11;71.73
30614;BME280;17381;51.690;5.270;2023-04-26T01:21:52;101944.81;;;4.08;71.78
30614;BME280;17381;51.690;5.270;2023-04-26T01:24:24;101910.28;;;3.70;71.23
30614;BME280;17381;51.690;5.270;2023-04-26T01:26:57;101951.63;;;4.02;71.45
30614;BME280;17381;51.690;5.270;2023-04-26T01:29:25;101922.78;;;3.89;71.69
30614;BME280;17381;51.690;5.270;2023-04-26T01:31:58;101950.69;;;3.98;71.82
30614;BME280;17381;51.690;5.270;2023-04-26T01:34:36;101948.09;;;3.98;72.00
30614;BME280;17381;51.690;5.270;2023-04-26T01:37:12;101907.63;;;3.68;71.99
30614;BME280;17381;51.690;5.270;2023-04-26T01:39:46;101951.47;;;3.92;71.92
30614;BME280;17381;51.690;5.270;2023-04-26T01:42:21;101946.16;;;3.88;72.03
30614;BME280;17381;51.690;5.270;2023-04-26T01:45:02;101963.34;;;3.80;71.97
30614;BME280;17381;51.690;5.270;2023-04-26T01:47:57;101928.19;;;3.56;71.96
30614;BME280;17381;51.690;5.270;2023-04-26T01:50:33;101938.56;;;3.56;72.20
30614;BME280;17381;51.690;5.270;2023-04-26T01:53:00;101948.97;;;3.56;71.85
30614;BME280;17381;51.690;5.270;2023-04-26T01:55:34;101935.97;;;3.55;71.84
30614;BME280;17381;51.690;5.270;2023-04-26T01:58:08;101946.47;;;3.61;71.62
30614;BME280;17381;51.690;5.270;2023-04-26T02:00:38;101917.41;;;3.38;71.90
30614;BME280;17381;51.690;5.270;2023-04-26T02:03:16;101952.44;;;3.55;71.99
30614;BME280;17381;51.690;5.270;2023-04-26T02:06:03;101882.16;;;3.08;71.94
30614;BME280;17381;51.690;5.270;2023-04-26T02:08:39;101937.44;;;3.42;72.13
30614;BME280;17381;51.690;5.270;2023-04-26T02:11:14;101955.75;;;3.48;72.36
30614;BME280;17381;51.690;5.270;2023-04-26T02:13:52;101945.34;;;3.48;72.59
30614;BME280;17381;51.690;5.270;2023-04-26T02:16:21;101937.31;;;3.36;72.54
30614;BME280;17381;51.690;5.270;2023-04-26T02:18:53;101969.66;;;3.50;72.96
30614;BME280;17381;51.690;5.270;2023-04-26T02:21:23;101848.75;;;2.86;72.97
30614;BME280;17381;51.690;5.270;2023-04-26T02:23:55;101955.63;;;3.42;72.50
30614;BME280;17381;51.690;5.270;2023-04-26T02:26:35;101930.16;;;3.27;73.06
30614;BME280;17381;51.690;5.270;2023-04-26T02:29:04;101942.47;;;3.34;73.08
30614;BME280;17381;51.690;5.270;2023-04-26T02:31:42;101945.94;;;3.35;73.08
30614;BME280;17381;51.690;5.270;2023-04-26T02:34:17;101940.63;;;3.30;73.16
30614;BME280;17381;51.690;5.270;2023-04-26T02:36:54;101944.13;;;3.31;73.33
30614;BME280;17381;51.690;5.270;2023-04-26T02:39:37;101945.81;;;3.30;72.94
30614;BME280;17381;51.690;5.270;2023-04-26T02:42:09;101938.81;;;3.26;73.73
30614;BME280;17381;51.690;5.270;2023-04-26T02:44:44;101940.50;;;3.24;73.03
30614;BME280;17381;51.690;5.270;2023-04-26T02:47:12;101940.22;;;3.12;73.01
30614;BME280;17381;51.690;5.270;2023-04-26T02:49:54;101898.72;;;2.75;73.26
30614;BME280;17381;51.690;5.270;2023-04-26T02:52:31;101883.94;;;2.71;73.71
30614;BME280;17381;51.690;5.270;2023-04-26T02:55:03;101930.44;;;3.00;73.56
30614;BME280;17381;51.690;5.270;2023-04-26T02:57:36;101927.94;;;3.04;74.02
30614;BME280;17381;51.690;5.270;2023-04-26T03:00:09;101934.03;;;3.05;73.12
30614;BME280;17381;51.690;5.270;2023-04-26T03:02:36;101863.06;;;2.67;73.50
30614;BME280;17381;51.690;5.270;2023-04-26T03:05:13;101933.13;;;3.04;73.93
30614;BME280;17381;51.690;5.270;2023-04-26T03:07:47;101935.72;;;3.04;73.92
30614;BME280;17381;51.690;5.270;2023-04-26T03:10:24;101920.00;;;2.98;73.52
30614;BME280;17381;51.690;5.270;2023-04-26T03:12:51;101929.53;;;2.99;73.39
30614;BME280;17381;51.690;5.270;2023-04-26T03:15:57;101819.88;;;2.32;73.71
30614;BME280;17381;51.690;5.270;2023-04-26T03:18:34;101933.81;;;2.96;73.77
30614;BME280;17381;51.690;5.270;2023-04-26T03:21:15;101936.34;;;2.94;73.37
30614;BME280;17381;51.690;5.270;2023-04-26T03:23:44;101861.88;;;2.54;73.72
30614;BME280;17381;51.690;5.270;2023-04-26T03:26:32;101927.56;;;2.88;73.51
30614;BME280;17381;51.690;5.270;2023-04-26T03:29:09;101867.03;;;2.52;74.05
30614;BME280;17381;51.690;5.270;2023-04-26T03:31:46;101926.72;;;2.89;73.88
30614;BME280;17381;51.690;5.270;2023-04-26T03:34:26;101922.31;;;2.84;74.23
30614;BME280;17381;51.690;5.270;2023-04-26T03:37:02;101924.91;;;2.84;74.31
30614;BME280;17381;51.690;5.270;2023-04-26T03:39:50;101874.88;;;2.55;74.50
30614;BME280;17381;51.690;5.270;2023-04-26T03:42:47;101918.84;;;2.84;74.24
30614;BME280;17381;51.690;5.270;2023-04-26T03:45:31;101899.50;;;2.71;74.16
30614;BME280;17381;51.690;5.270;2023-04-26T03:48:14;101912.69;;;2.80;74.46
30614;BME280;17381;51.690;5.270;2023-04-26T03:50:47;101912.50;;;2.73;74.36
30614;BME280;17381;51.690;5.270;2023-04-26T03:53:20;101859.06;;;2.45;74.39
30614;BME280;17381;51.690;5.270;2023-04-26T03:55:56;101918.56;;;2.73;74.69
30614;BME280;17381;51.690;5.270;2023-04-26T03:58:28;101917.66;;;2.71;74.35
30614;BME280;17381;51.690;5.270;2023-04-26T04:01:00;101917.56;;;2.68;74.68
30614;BME280;17381;51.690;5.270;2023-04-26T04:03:37;101918.53;;;2.72;74.36
30614;BME280;17381;51.690;5.270;2023-04-26T04:06:17;101921.09;;;2.70;74.65
30614;BME280;17381;51.690;5.270;2023-04-26T04:12:04;101920.94;;;2.64;74.81
30614;BME280;17381;51.690;5.270;2023-04-26T04:14:48;101921.81;;;2.65;74.77
30614;BME280;17381;51.690;5.270;2023-04-26T04:20:49;101917.31;;;2.56;75.17
30614;BME280;17381;51.690;5.270;2023-04-26T04:23:37;101921.75;;;2.61;75.32
30614;BME280;17381;51.690;5.270;2023-04-26T04:26:32;101927.75;;;2.59;74.87
30614;BME280;17381;51.690;5.270;2023-04-26T04:29:17;101929.50;;;2.60;74.90
30614;BME280;17381;51.690;5.270;2023-04-26T04:32:24;101925.16;;;2.60;74.99
30614;BME280;17381;51.690;5.270;2023-04-26T04:35:02;101910.28;;;2.52;75.30
30614;BME280;17381;51.690;5.270;2023-04-26T04:38:12;101927.81;;;2.62;75.12
30614;BME280;17381;51.690;5.270;2023-04-26T04:40:47;101871.50;;;2.23;74.99
30614;BME280;17381;51.690;5.270;2023-04-26T04:43:26;101936.28;;;2.55;75.60
30614;BME280;17381;51.690;5.270;2023-04-26T04:46:07;101917.06;;;2.47;75.35
30614;BME280;17381;51.690;5.270;2023-04-26T04:48:35;101933.75;;;2.56;75.41
30614;BME280;17381;51.690;5.270;2023-04-26T04:51:20;101928.66;;;2.61;76.02
30614;BME280;17381;51.690;5.270;2023-04-26T04:54:14;101913.84;;;2.57;75.64
30614;BME280;17381;51.690;5.270;2023-04-26T04:56:49;101941.16;;;2.77;76.07
30614;BME280;17381;51.690;5.270;2023-04-26T04:59:36;101936.97;;;2.82;75.97
30614;BME280;17381;51.690;5.270;2023-04-26T05:02:25;101933.44;;;2.80;75.78
30614;BME280;17381;51.690;5.270;2023-04-26T05:05:07;101934.53;;;2.90;76.07
30614;BME280;17381;51.690;5.270;2023-04-26T05:07:42;101940.84;;;3.00;75.77
30614;BME280;17381;51.690;5.270;2023-04-26T05:10:22;101949.56;;;3.03;75.84
30614;BME280;17381;51.690;5.270;2023-04-26T05:13:01;101943.78;;;3.15;76.37
30614;BME280;17381;51.690;5.270;2023-04-26T05:15:41;101928.19;;;3.15;76.08
30614;BME280;17381;51.690;5.270;2023-04-26T05:18:15;101945.75;;;3.25;76.14
30614;BME280;17381;51.690;5.270;2023-04-26T05:21:01;101885.31;;;2.95;75.63
30614;BME280;17381;51.690;5.270;2023-04-26T05:23:37;101947.72;;;3.37;76.00
30614;BME280;17381;51.690;5.270;2023-04-26T05:26:03;101945.22;;;3.42;76.44
30614;BME280;17381;51.690;5.270;2023-04-26T05:29:16;101936.50;;;3.40;76.21
30614;BME280;17381;51.690;5.270;2023-04-26T05:32:02;101894.44;;;3.15;76.12
30614;BME280;17381;51.690;5.270;2023-04-26T05:34:51;101940.94;;;3.44;76.18
30614;BME280;17381;51.690;5.270;2023-04-26T05:37:26;101947.22;;;3.55;75.99
30614;BME280;17381;51.690;5.270;2023-04-26T05:40:15;101947.34;;;3.60;76.14
30614;BME280;17381;51.690;5.270;2023-04-26T05:43:15;101955.22;;;3.64;76.43
30614;BME280;17381;51.690;5.270;2023-04-26T05:46:21;101960.53;;;3.70;76.36
30614;BME280;17381;51.690;5.270;2023-04-26T05:49:23;101936.19;;;3.65;76.82
30614;BME280;17381;51.690;5.270;2023-04-26T05:52:26;101913.34;;;3.50;76.22
30614;BME280;17381;51.690;5.270;2023-04-26T05:54:57;101959.94;;;3.84;76.04
30614;BME280;17381;51.690;5.270;2023-04-26T05:57:26;101889.13;;;3.52;76.55
30614;BME280;17381;51.690;5.270;2023-04-26T06:00:08;101947.19;;;3.96;76.63
30614;BME280;17381;51.690;5.270;2023-04-26T06:03:02;101956.94;;;4.06;76.89
30614;BME280;17381;51.690;5.270;2023-04-26T06:05:44;101908.06;;;3.90;76.42
30614;BME280;17381;51.690;5.270;2023-04-26T06:08:35;101893.34;;;3.92;77.16
30614;BME280;17381;51.690;5.270;2023-04-26T06:11:25;101943.47;;;4.30;77.15
30614;BME280;17381;51.690;5.270;2023-04-26T06:14:01;101924.41;;;4.30;77.35
30614;BME280;17381;51.690;5.270;2023-04-26T06:16:45;101961.28;;;4.54;77.05
30614;BME280;17381;51.690;5.270;2023-04-26T06:19:17;101961.47;;;4.67;76.73
30614;BME280;17381;51.690;5.270;2023-04-26T06:22:11;101966.84;;;4.77;76.73
30614;BME280;17381;51.690;5.270;2023-04-26T06:24:55;101961.75;;;4.84;76.50
30614;BME280;17381;51.690;5.270;2023-04-26T06:27:39;101974.03;;;4.92;76.76
30614;BME280;17381;51.690;5.270;2023-04-26T06:30:12;101960.22;;;4.96;76.46
30614;BME280;17381;51.690;5.270;2023-04-26T06:32:45;101973.41;;;5.07;76.81
30614;BME280;17381;51.690;5.270;2023-04-26T06:35:43;101976.97;;;5.15;76.28
30614;BME280;17381;51.690;5.270;2023-04-26T06:38:22;101980.56;;;5.23;76.23
30614;BME280;17381;51.690;5.270;2023-04-26T06:40:58;101971.09;;;5.29;76.51
30614;BME280;17381;51.690;5.270;2023-04-26T06:43:40;101978.16;;;5.36;76.37
30614;BME280;17381;51.690;5.270;2023-04-26T06:46:32;101988.72;;;5.46;76.24
30614;BME280;17381;51.690;5.270;2023-04-26T06:49:11;101987.97;;;5.54;75.94
30614;BME280;17381;51.690;5.270;2023-04-26T06:51:49;101925.91;;;5.28;76.21
30614;BME280;17381;51.690;5.270;2023-04-26T06:54:18;101964.53;;;5.57;76.22
30614;BME280;17381;51.690;5.270;2023-04-26T06:57:03;101970.72;;;5.65;75.76
30614;BME280;17381;51.690;5.270;2023-04-26T06:59:35;101981.41;;;5.85;75.97
30614;BME280;17381;51.690;5.270;2023-04-26T07:02:07;101975.44;;;5.94;75.56
30614;BME280;17381;51.690;5.270;2023-04-26T07:04:37;101980.78;;;6.03;75.77
30614;BME280;17381;51.690;5.270;2023-04-26T07:07:12;101987.84;;;6.13;75.88
30614;BME280;17381;51.690;5.270;2023-04-26T07:09:52;101977.44;;;6.15;75.39
30614;BME280;17381;51.690;5.270;2023-04-26T07:12:25;101981.03;;;6.26;75.44
30614;BME280;17381;51.690;5.270;2023-04-26T07:15:01;101929.41;;;5.99;75.22
30614;BME280;17381;51.690;5.270;2023-04-26T07:17:55;101920.81;;;6.07;75.64
30614;BME280;17381;51.690;5.270;2023-04-26T07:20:29;101975.16;;;6.48;75.21
30614;BME280;17381;51.690;5.270;2023-04-26T07:23:04;101978.75;;;6.63;74.89
30614;BME280;17381;51.690;5.270;2023-04-26T07:25:48;101971.00;;;6.73;74.41
30614;BME280;17381;51.690;5.270;2023-04-26T07:28:52;101980.75;;;6.90;74.29
30614;BME280;17381;51.690;5.270;2023-04-26T07:31:33;101967.75;;;6.97;74.13
30614;BME280;17381;51.690;5.270;2023-04-26T07:34:04;101981.81;;;7.16;73.40
30614;BME280;17381;51.690;5.270;2023-04-26T07:36:43;101938.19;;;7.09;72.30
30614;BME280;17381;51.690;5.270;2023-04-26T07:39:23;101973.22;;;7.39;71.76
30614;BME280;17381;51.690;5.270;2023-04-26T07:42:11;101947.03;;;7.33;71.18
30614;BME280;17381;51.690;5.270;2023-04-26T07:44:43;101983.75;;;7.53;70.24
30614;BME280;17381;51.690;5.270;2023-04-26T07:47:12;101919.09;;;7.22;70.23
30614;BME280;17381;51.690;5.270;2023-04-26T07:49:39;101976.84;;;7.59;69.84
30614;BME280;17381;51.690;5.270;2023-04-26T07:52:08;101975.09;;;7.66;68.92
30614;BME280;17381;51.690;5.270;2023-04-26T07:54:53;101938.41;;;7.49;69.05
30614;BME280;17381;51.690;5.270;2023-04-26T07:57:34;101986.53;;;7.83;68.95
30614;BME280;17381;51.690;5.270;2023-04-26T08:00:40;101991.78;;;7.90;67.54
30614;BME280;17381;51.690;5.270;2023-04-26T08:03:32;101984.81;;;7.89;67.13
30614;BME280;17381;51.690;5.270;2023-04-26T08:06:16;101977.84;;;7.94;67.10
30614;BME280;17381;51.690;5.270;2023-04-26T08:09:16;101991.00;;;8.17;66.27
30614;BME280;17381;51.690;5.270;2023-04-26T08:11:56;101970.91;;;8.14;65.97
30614;BME280;17381;51.690;5.270;2023-04-26T08:14:38;101988.50;;;8.44;64.65
30614;BME280;17381;51.690;5.270;2023-04-26T08:17:19;101986.75;;;8.57;64.66
30614;BME280;17381;51.690;5.270;2023-04-26T08:19:52;101984.13;;;8.77;63.39
30614;BME280;17381;51.690;5.270;2023-04-26T08:22:18;101970.16;;;8.84;63.73
30614;BME280;17381;51.690;5.270;2023-04-26T08:25:05;101977.13;;;8.94;62.75
30614;BME280;17381;51.690;5.270;2023-04-26T08:27:39;101981.50;;;8.94;63.27
30614;BME280;17381;51.690;5.270;2023-04-26T08:33:22;101968.41;;;8.79;62.20
30614;BME280;17381;51.690;5.270;2023-04-26T08:39:05;101969.28;;;8.58;61.73
30614;BME280;17381;51.690;5.270;2023-04-26T08:41:52;101980.66;;;8.63;61.13
30614;BME280;17381;51.690;5.270;2023-04-26T08:45:03;101983.28;;;8.60;61.17
30614;BME280;17381;51.690;5.270;2023-04-26T08:47:51;101985.03;;;8.62;61.14
30614;BME280;17381;51.690;5.270;2023-04-26T08:50:42;101955.28;;;8.48;60.95
30614;BME280;17381;51.690;5.270;2023-04-26T08:53:35;101971.00;;;8.62;59.28
30614;BME280;17381;51.690;5.270;2023-04-26T08:56:06;101979.75;;;8.67;59.71
30614;BME280;17381;51.690;5.270;2023-04-26T08:59:03;101972.78;;;8.73;58.96
30614;BME280;17381;51.690;5.270;2023-04-26T09:01:49;101973.63;;;8.92;58.65
30614;BME280;17381;51.690;5.270;2023-04-26T09:04:18;101969.22;;;9.31;59.47
30614;BME280;17381;51.690;5.270;2023-04-26T09:06:58;101967.31;;;9.81;58.89
30614;BME280;17381;51.690;5.270;2023-04-26T09:09:27;101976.78;;;10.08;56.82
30614;BME280;17381;51.690;5.270;2023-04-26T09:12:05;101915.41;;;10.21;56.52
30614;BME280;17381;51.690;5.270;2023-04-26T09:14:38;101912.47;;;10.67;57.53
30614;BME280;17381;51.690;5.270;2023-04-26T09:17:41;101953.94;;;11.29;55.40
30614;BME280;17381;51.690;5.270;2023-04-26T09:20:43;101946.75;;;11.43;53.26
30614;BME280;17381;51.690;5.270;2023-04-26T09:23:31;101954.69;;;11.40;50.40
30614;BME280;17381;51.690;5.270;2023-04-26T09:34:02;101958.75;;;10.87;53.04
30614;BME280;17381;51.690;5.270;2023-04-26T09:52:10;101958.03;;;10.69;52.39
30614;BME280;17381;51.690;5.270;2023-04-26T09:55:39;101962.44;;;10.64;52.27
30614;BME280;17381;51.690;5.270;2023-04-26T09:58:24;101952.00;;;10.52;53.07
30614;BME280;17381;51.690;5.270;2023-04-26T10:01:11;101956.41;;;10.52;52.21
30614;BME280;17381;51.690;5.270;2023-04-26T10:03:40;101953.03;;;10.36;52.63
30614;BME280;17381;51.690;5.270;2023-04-26T10:06:14;101954.81;;;10.23;53.19
30614;BME280;17381;51.690;5.270;2023-04-26T10:08:55;101933.88;;;10.09;52.77
30614;BME280;17381;51.690;5.270;2023-04-26T10:12:08;101961.91;;;10.10;52.65
30614;BME280;17381;51.690;5.270;2023-04-26T10:15:03;101944.50;;;9.88;52.79
30614;BME280;17381;51.690;5.270;2023-04-26T10:17:47;101959.38;;;9.90;52.81
30614;BME280;17381;51.690;5.270;2023-04-26T10:20:37;101943.72;;;9.73;53.53
30614;BME280;17381;51.690;5.270;2023-04-26T10:23:53;101958.56;;;9.79;53.60
30614;BME280;17381;51.690;5.270;2023-04-26T10:27:01;101955.09;;;9.74;53.85
30614;BME280;17381;51.690;5.270;2023-04-26T10:30:31;101941.94;;;9.72;54.25
30614;BME280;17381;51.690;5.270;2023-04-26T10:33:24;101919.25;;;9.59;54.55
30614;BME280;17381;51.690;5.270;2023-04-26T10:39:36;101948.06;;;9.77;54.10
30614;BME280;17381;51.690;5.270;2023-04-26T10:42:51;101940.16;;;9.83;54.41
30614;BME280;17381;51.690;5.270;2023-04-26T10:45:47;101954.09;;;9.95;54.34
30614;BME280;17381;51.690;5.270;2023-04-26T10:48:34;101954.97;;;10.00;54.14
30614;BME280;17381;51.690;5.270;2023-04-26T10:51:35;101941.84;;;9.94;54.16
30614;BME280;17381;51.690;5.270;2023-04-26T10:58:01;101950.53;;;10.07;54.34
30614;BME280;17381;51.690;5.270;2023-04-26T11:00:30;101943.50;;;10.10;54.21
30614;BME280;17381;51.690;5.270;2023-04-26T11:03:21;101911.19;;;9.96;54.48
30614;BME280;17381;51.690;5.270;2023-04-26T11:52:19;101909.28;;;11.94;49.36
30614;BME280;17381;51.690;5.270;2023-04-26T12:00:13;101921.28;;;11.47;50.33
30614;BME280;17381;51.690;5.270;2023-04-26T12:28:31;101917.66;;;11.55;50.94
30614;BME280;17381;51.690;5.270;2023-04-26T12:31:42;101909.56;;;11.69;51.56
30614;BME280;17381;51.690;5.270;2023-04-26T12:34:29;101911.13;;;11.86;51.95
30614;BME280;17381;51.690;5.270;2023-04-26T12:37:30;101918.03;;;11.96;50.93
30614;BME280;17381;51.690;5.270;2023-04-26T12:40:44;101913.63;;;11.98;49.62
30614;BME280;17381;51.690;5.270;2023-04-26T13:18:51;101911.72;;;12.63;50.48
30614;BME280;17381;51.690;5.270;2023-04-26T13:29:26;101911.50;;;14.06;45.62
30614;BME280;17381;51.690;5.270;2023-04-26T13:32:35;101915.16;;;14.02;46.13
30614;BME280;17381;51.690;5.270;2023-04-26T13:35:38;101909.91;;;13.99;45.31
30614;BME280;17381;51.690;5.270;2023-04-26T13:38:33;101900.75;;;13.77;44.75
30614;BME280;17381;51.690;5.270;2023-04-26T13:41:40;101915.13;;;13.63;44.61
30614;BME280;17381;51.690;5.270;2023-04-26T14:14:12;101899.34;;;14.36;45.65
30614;BME280;17381;51.690;5.270;2023-04-26T14:16:53;101902.16;;;14.30;43.05
30614;BME280;17381;51.690;5.270;2023-04-26T14:19:35;101901.25;;;14.31;44.11
30614;BME280;17381;51.690;5.270;2023-04-26T14:22:18;101895.03;;;14.32;44.18
30614;BME280;17381;51.690;5.270;2023-04-26T14:25:09;101864.66;;;14.13;43.76
30614;BME280;17381;51.690;5.270;2023-04-26T14:28:28;101895.25;;;14.23;43.08
30614;BME280;17381;51.690;5.270;2023-04-26T14:31:34;101888.41;;;14.14;44.16
30614;BME280;17381;51.690;5.270;2023-04-26T14:34:27;101885.31;;;13.97;43.62
30614;BME280;17381;51.690;5.270;2023-04-26T14:55:36;101901.41;;;12.98;44.68
30614;BME280;17381;51.690;5.270;2023-04-26T14:58:45;101892.00;;;12.84;44.34
30614;BME280;17381;51.690;5.270;2023-04-26T15:09:43;101890.19;;;12.35;43.59
30614;BME280;17381;51.690;5.270;2023-04-26T15:28:34;101880.06;;;12.09;45.21
30614;BME280;17381;51.690;5.270;2023-04-26T15:37:20;101847.34;;;12.22;45.87
30614;BME280;17381;51.690;5.270;2023-04-26T15:47:44;101874.78;;;12.62;45.94
30614;BME280;17381;51.690;5.270;2023-04-26T15:58:29;101877.72;;;12.96;45.88
30614;BME280;17381;51.690;5.270;2023-04-26T16:01:31;101872.38;;;12.99;45.42
30614;BME280;17381;51.690;5.270;2023-04-26T16:04:19;101869.59;;;13.07;45.95
30614;BME280;17381;51.690;5.270;2023-04-26T16:07:26;101870.16;;;13.21;46.80
30614;BME280;17381;51.690;5.270;2023-04-26T16:39:02;101872.88;;;12.72;44.55
30614;BME280;17381;51.690;5.270;2023-04-26T16:50:26;101867.94;;;12.52;46.31
30614;BME280;17381;51.690;5.270;2023-04-26T17:49:16;101895.91;;;11.38;47.48
30614;BME280;17381;51.690;5.270;2023-04-26T17:57:36;101909.28;;;11.20;46.98
30614;BME280;17381;51.690;5.270;2023-04-26T18:20:30;101929.19;;;10.57;48.91
30614;BME280;17381;51.690;5.270;2023-04-26T18:46:46;101929.44;;;10.19;49.62
30614;BME280;17381;51.690;5.270;2023-04-26T18:49:46;101938.22;;;10.16;49.93
30614;BME280;17381;51.690;5.270;2023-04-26T18:55:55;101916.47;;;9.94;49.18
30614;BME280;17381;51.690;5.270;2023-04-26T19:14:46;101952.34;;;9.94;50.66
30614;BME280;17381;51.690;5.270;2023-04-26T19:22:17;101961.16;;;9.87;51.56
30614;BME280;17381;51.690;5.270;2023-04-26T21:04:07;102014.53;;;8.04;57.95
30614;BME280;17381;51.690;5.270;2023-04-26T21:07:01;102010.13;;;7.97;57.62
30614;BME280;17381;51.690;5.270;2023-04-26T21:09:42;102006.66;;;7.95;57.73
30614;BME280;17381;51.690;5.270;2023-04-26T21:12:34;101997.91;;;7.90;58.29
30614;BME280;17381;51.690;5.270;2023-04-26T21:15:29;102008.38;;;7.95;57.99
30614;BME280;17381;51.690;5.270;2023-04-26T21:18:24;101995.22;;;7.76;58.64
30614;BME280;17381;51.690;5.270;2023-04-26T21:21:37;102010.06;;;7.79;58.84
30614;BME280;17381;51.690;5.270;2023-04-26T21:24:37;102021.38;;;7.76;59.21
30614;BME280;17381;51.690;5.270;2023-04-26T21:27:40;102014.41;;;7.77;58.98
30614;BME280;17381;51.690;5.270;2023-04-26T21:30:40;101965.44;;;7.47;59.04
30614;BME280;17381;51.690;5.270;2023-04-26T21:33:55;102020.50;;;7.74;59.65
30614;BME280;17381;51.690;5.270;2023-04-26T21:36:55;102022.25;;;7.72;59.58
30614;BME280;17381;51.690;5.270;2023-04-26T21:39:56;102018.72;;;7.67;59.79
30614;BME280;17381;51.690;5.270;2023-04-26T21:42:53;101987.22;;;7.47;59.91
30614;BME280;17381;51.690;5.270;2023-04-26T21:48:55;101999.44;;;7.48;60.07
30614;BME280;17381;51.690;5.270;2023-04-26T21:54:33;102011.59;;;7.40;60.30
30614;BME280;17381;51.690;5.270;2023-04-26T21:57:30;102022.06;;;7.38;60.96
30614;BME280;17381;51.690;5.270;2023-04-26T22:00:19;102016.81;;;7.37;61.01
30614;BME280;17381;51.690;5.270;2023-04-26T22:03:24;102015.94;;;7.39;61.18
30614;BME280;17381;51.690;5.270;2023-04-26T22:06:20;102006.28;;;7.29;61.10
30614;BME280;17381;51.690;5.270;2023-04-26T22:09:37;102019.41;;;7.35;61.27
30614;BME280;17381;51.690;5.270;2023-04-26T22:13:02;101994.84;;;7.12;61.56
30614;BME280;17381;51.690;5.270;2023-04-26T22:16:20;102019.34;;;7.23;61.55
30614;BME280;17381;51.690;5.270;2023-04-26T22:19:12;101989.50;;;6.95;61.88
30614;BME280;17381;51.690;5.270;2023-04-26T22:22:01;101970.25;;;6.85;61.97
30614;BME280;17381;51.690;5.270;2023-04-26T22:24:48;102017.53;;;7.16;62.48
30614;BME280;17381;51.690;5.270;2023-04-26T22:27:37;102036.69;;;7.13;62.45
30614;BME280;17381;51.690;5.270;2023-04-26T22:34:14;102019.16;;;7.02;63.08
30614;BME280;17381;51.690;5.270;2023-04-26T22:52:28;102042.53;;;6.82;64.04
30614;BME280;17381;51.690;5.270;2023-04-26T22:59:42;102050.25;;;6.72;63.67
30614;BME280;17381;51.690;5.270;2023-04-26T23:02:49;102045.91;;;6.71;64.07
30614;BME280;17381;51.690;5.270;2023-04-26T23:09:04;102042.28;;;6.57;64.29
30614;BME280;17381;51.690;5.270;2023-04-26T23:15:58;102054.44;;;6.55;64.37
30614;BME280;17381;51.690;5.270;2023-04-26T23:30:29;102066.47;;;6.38;64.44
30614;BME280;17381;51.690;5.270;2023-04-26T23:33:19;102060.31;;;6.34;64.79
30614;BME280;17381;51.690;5.270;2023-04-26T23:36:23;102062.91;;;6.32;64.59
30614;BME280;17381;51.690;5.270;2023-04-26T23:39:19;102005.03;;;5.94;64.83
30614;BME280;17381;51.690;5.270;2023-04-26T23:41:58;102061.09;;;6.25;65.04
30614;BME280;17381;51.690;5.270;2023-04-26T23:45:16;102067.19;;;6.26;64.89
30614;BME280;17381;51.690;5.270;2023-04-26T23:47:59;102069.72;;;6.21;65.71
